sensor_id;sensor_type;location;lat;lon;timestamp;P1;durP1;ratioP1;P2;durP2;ratioP2
44456;SDS011;30159;49.316;8.558;2023-07-24T00:01:18;2.73;;;2.53;;
44456;SDS011;30159;49.316;8.558;2023-07-24T00:03:45;2.80;;;2.60;;
44456;SDS011;30159;49.316;8.558;2023-07-24T00:06:13;3.57;;;2.47;;
44456;SDS011;30159;49.316;8.558;2023-07-24T00:08:40;3.00;;;2.67;;
44456;SDS011;30159;49.316;8.558;2023-07-24T00:11:06;3.10;;;2.80;;
44456;SDS011;30159;49.316;8.558;2023-07-24T00:13:33;2.60;;;2.40;;
44456;SDS011;30159;49.316;8.558;2023-07-24T00:16:00;2.83;;;2.53;;
44456;SDS011;30159;49.316;8.558;2023-07-24T00:18:26;2.93;;;2.73;;
44456;SDS011;30159;49.316;8.558;2023-07-24T00:20:53;4.03;;;2.63;;
44456;SDS011;30159;49.316;8.558;2023-07-24T00:23:21;3.80;;;2.70;;
44456;SDS011;30159;49.316;8.558;2023-07-24T00:25:47;3.80;;;3.00;;
44456;SDS011;30159;49.316;8.558;2023-07-24T00:28:14;3.20;;;2.73;;
44456;SDS011;30159;49.316;8.558;2023-07-24T00:30:41;3.23;;;3.03;;
44456;SDS011;30159;49.316;8.558;2023-07-24T00:33:08;2.93;;;2.60;;
44456;SDS011;30159;49.316;8.558;2023-07-24T00:35:35;3.20;;;2.90;;
44456;SDS011;30159;49.316;8.558;2023-07-24T00:38:01;2.30;;;2.10;;
44456;SDS011;30159;49.316;8.558;2023-07-24T00:40:29;3.03;;;2.73;;
44456;SDS011;30159;49.316;8.558;2023-07-24T00:42:56;4.10;;;3.10;;
44456;SDS011;30159;49.316;8.558;2023-07-24T00:45:22;3.07;;;2.77;;
44456;SDS011;30159;49.316;8.558;2023-07-24T00:47:50;2.77;;;2.57;;
44456;SDS011;30159;49.316;8.558;2023-07-24T00:50:17;3.60;;;2.37;;
44456;SDS011;30159;49.316;8.558;2023-07-24T00:52:45;3.40;;;3.20;;
44456;SDS011;30159;49.316;8.558;2023-07-24T00:55:13;3.20;;;2.77;;
44456;SDS011;30159;49.316;8.558;2023-07-24T00:57:42;2.77;;;2.57;;
44456;SDS011;30159;49.316;8.558;2023-07-24T01:00:10;3.57;;;3.27;;
44456;SDS011;30159;49.316;8.558;2023-07-24T01:02:37;3.10;;;2.90;;
44456;SDS011;30159;49.316;8.558;2023-07-24T01:05:04;2.97;;;2.77;;
44456;SDS011;30159;49.316;8.558;2023-07-24T01:07:32;2.83;;;2.50;;
44456;SDS011;30159;49.316;8.558;2023-07-24T01:09:59;2.73;;;2.50;;
44456;SDS011;30159;49.316;8.558;2023-07-24T01:12:27;3.07;;;2.87;;
44456;SDS011;30159;49.316;8.558;2023-07-24T01:15:03;3.70;;;3.40;;
44456;SDS011;30159;49.316;8.558;2023-07-24T01:17:38;3.50;;;3.20;;
44456;SDS011;30159;49.316;8.558;2023-07-24T01:20:08;3.07;;;2.77;;
44456;SDS011;30159;49.316;8.558;2023-07-24T01:22:38;3.50;;;3.20;;
44456;SDS011;30159;49.316;8.558;2023-07-24T01:25:09;3.47;;;3.17;;
44456;SDS011;30159;49.316;8.558;2023-07-24T01:27:41;3.83;;;3.53;;
44456;SDS011;30159;49.316;8.558;2023-07-24T01:30:08;3.17;;;2.87;;
44456;SDS011;30159;49.316;8.558;2023-07-24T01:32:35;3.70;;;3.40;;
44456;SDS011;30159;49.316;8.558;2023-07-24T01:35:03;3.20;;;2.90;;
44456;SDS011;30159;49.316;8.558;2023-07-24T01:37:30;4.20;;;3.80;;
44456;SDS011;30159;49.316;8.558;2023-07-24T01:39:57;3.33;;;3.03;;
44456;SDS011;30159;49.316;8.558;2023-07-24T01:42:24;3.20;;;3.00;;
44456;SDS011;30159;49.316;8.558;2023-07-24T01:44:53;3.30;;;3.00;;
44456;SDS011;30159;49.316;8.558;2023-07-24T01:47:20;3.77;;;3.40;;
44456;SDS011;30159;49.316;8.558;2023-07-24T01:49:47;3.70;;;3.27;;
44456;SDS011;30159;49.316;8.558;2023-07-24T01:52:14;3.60;;;3.30;;
44456;SDS011;30159;49.316;8.558;2023-07-24T01:54:41;4.43;;;3.27;;
44456;SDS011;30159;49.316;8.558;2023-07-24T01:57:07;4.50;;;3.80;;
44456;SDS011;30159;49.316;8.558;2023-07-24T01:59:34;3.10;;;2.80;;
44456;SDS011;30159;49.316;8.558;2023-07-24T02:02:02;4.37;;;3.77;;
44456;SDS011;30159;49.316;8.558;2023-07-24T02:04:29;3.97;;;3.67;;
44456;SDS011;30159;49.316;8.558;2023-07-24T02:06:55;2.87;;;2.67;;
44456;SDS011;30159;49.316;8.558;2023-07-24T02:09:22;3.00;;;2.80;;
44456;SDS011;30159;49.316;8.558;2023-07-24T02:11:48;3.23;;;2.93;;
44456;SDS011;30159;49.316;8.558;2023-07-24T02:14:17;3.37;;;3.07;;
44456;SDS011;30159;49.316;8.558;2023-07-24T02:16:45;3.83;;;3.53;;
44456;SDS011;30159;49.316;8.558;2023-07-24T02:19:13;6.00;;;3.50;;
44456;SDS011;30159;49.316;8.558;2023-07-24T02:21:39;3.63;;;3.30;;
44456;SDS011;30159;49.316;8.558;2023-07-24T02:24:06;4.57;;;3.30;;
44456;SDS011;30159;49.316;8.558;2023-07-24T02:26:33;3.90;;;3.53;;
44456;SDS011;30159;49.316;8.558;2023-07-24T02:28:59;3.87;;;3.47;;
44456;SDS011;30159;49.316;8.558;2023-07-24T02:31:26;4.50;;;4.10;;
44456;SDS011;30159;49.316;8.558;2023-07-24T02:33:53;4.13;;;3.83;;
44456;SDS011;30159;49.316;8.558;2023-07-24T02:36:20;3.43;;;3.00;;
44456;SDS011;30159;49.316;8.558;2023-07-24T02:38:47;4.20;;;3.90;;
44456;SDS011;30159;49.316;8.558;2023-07-24T02:41:14;4.50;;;2.47;;
44456;SDS011;30159;49.316;8.558;2023-07-24T02:43:40;3.90;;;3.60;;
44456;SDS011;30159;49.316;8.558;2023-07-24T02:46:07;6.03;;;4.03;;
44456;SDS011;30159;49.316;8.558;2023-07-24T02:48:34;3.30;;;3.00;;
44456;SDS011;30159;49.316;8.558;2023-07-24T02:51:01;6.60;;;3.43;;
44456;SDS011;30159;49.316;8.558;2023-07-24T02:53:29;4.10;;;3.40;;
44456;SDS011;30159;49.316;8.558;2023-07-24T02:55:55;3.70;;;3.00;;
44456;SDS011;30159;49.316;8.558;2023-07-24T02:58:22;3.37;;;3.17;;
44456;SDS011;30159;49.316;8.558;2023-07-24T03:00:48;4.17;;;3.40;;
44456;SDS011;30159;49.316;8.558;2023-07-24T03:03:15;5.83;;;3.30;;
44456;SDS011;30159;49.316;8.558;2023-07-24T03:05:41;3.77;;;3.43;;
44456;SDS011;30159;49.316;8.558;2023-07-24T03:08:08;3.70;;;3.40;;
44456;SDS011;30159;49.316;8.558;2023-07-24T03:10:36;3.17;;;2.97;;
44456;SDS011;30159;49.316;8.558;2023-07-24T03:13:06;2.70;;;2.50;;
44456;SDS011;30159;49.316;8.558;2023-07-24T03:15:32;2.87;;;2.67;;
44456;SDS011;30159;49.316;8.558;2023-07-24T03:17:59;3.00;;;2.70;;
44456;SDS011;30159;49.316;8.558;2023-07-24T03:20:25;2.83;;;2.50;;
44456;SDS011;30159;49.316;8.558;2023-07-24T03:22:52;4.67;;;3.53;;
44456;SDS011;30159;49.316;8.558;2023-07-24T03:25:19;3.33;;;3.03;;
44456;SDS011;30159;49.316;8.558;2023-07-24T03:27:47;2.77;;;2.57;;
44456;SDS011;30159;49.316;8.558;2023-07-24T03:30:13;2.73;;;2.53;;
44456;SDS011;30159;49.316;8.558;2023-07-24T03:32:40;3.50;;;2.97;;
44456;SDS011;30159;49.316;8.558;2023-07-24T03:35:07;3.23;;;2.90;;
44456;SDS011;30159;49.316;8.558;2023-07-24T03:37:34;3.13;;;2.83;;
44456;SDS011;30159;49.316;8.558;2023-07-24T03:40:01;3.60;;;3.30;;
44456;SDS011;30159;49.316;8.558;2023-07-24T03:42:28;2.83;;;2.63;;
44456;SDS011;30159;49.316;8.558;2023-07-24T03:44:57;5.03;;;3.20;;
44456;SDS011;30159;49.316;8.558;2023-07-24T03:47:24;2.70;;;2.50;;
44456;SDS011;30159;49.316;8.558;2023-07-24T03:49:50;4.53;;;2.77;;
44456;SDS011;30159;49.316;8.558;2023-07-24T03:52:17;3.80;;;2.97;;
44456;SDS011;30159;49.316;8.558;2023-07-24T03:54:44;3.47;;;2.83;;
44456;SDS011;30159;49.316;8.558;2023-07-24T03:57:11;3.30;;;2.97;;
44456;SDS011;30159;49.316;8.558;2023-07-24T03:59:37;4.13;;;2.70;;
44456;SDS011;30159;49.316;8.558;2023-07-24T04:02:05;3.73;;;3.13;;
44456;SDS011;30159;49.316;8.558;2023-07-24T04:04:32;2.83;;;2.63;;
44456;SDS011;30159;49.316;8.558;2023-07-24T04:06:59;3.63;;;3.00;;
44456;SDS011;30159;49.316;8.558;2023-07-24T04:09:26;6.07;;;3.27;;
44456;SDS011;30159;49.316;8.558;2023-07-24T04:11:52;2.70;;;2.50;;
44456;SDS011;30159;49.316;8.558;2023-07-24T04:14:19;2.63;;;2.43;;
44456;SDS011;30159;49.316;8.558;2023-07-24T04:16:46;2.50;;;2.30;;
44456;SDS011;30159;49.316;8.558;2023-07-24T04:19:14;3.20;;;3.00;;
44456;SDS011;30159;49.316;8.558;2023-07-24T04:21:40;2.73;;;2.53;;
44456;SDS011;30159;49.316;8.558;2023-07-24T04:24:07;3.40;;;3.10;;
44456;SDS011;30159;49.316;8.558;2023-07-24T04:26:33;3.80;;;3.30;;
44456;SDS011;30159;49.316;8.558;2023-07-24T04:29:00;3.20;;;3.00;;
44456;SDS011;30159;49.316;8.558;2023-07-24T04:31:27;3.67;;;2.90;;
44456;SDS011;30159;49.316;8.558;2023-07-24T04:33:53;3.70;;;3.40;;
44456;SDS011;30159;49.316;8.558;2023-07-24T04:36:21;3.60;;;3.30;;
44456;SDS011;30159;49.316;8.558;2023-07-24T04:38:48;4.40;;;2.90;;
44456;SDS011;30159;49.316;8.558;2023-07-24T04:41:14;3.70;;;3.47;;
44456;SDS011;30159;49.316;8.558;2023-07-24T04:43:41;3.30;;;3.00;;
44456;SDS011;30159;49.316;8.558;2023-07-24T04:46:08;3.57;;;3.27;;
44456;SDS011;30159;49.316;8.558;2023-07-24T04:48:35;4.30;;;4.00;;
44456;SDS011;30159;49.316;8.558;2023-07-24T04:51:01;3.70;;;3.30;;
44456;SDS011;30159;49.316;8.558;2023-07-24T04:53:29;3.73;;;3.20;;
44456;SDS011;30159;49.316;8.558;2023-07-24T04:55:56;3.70;;;3.37;;
44456;SDS011;30159;49.316;8.558;2023-07-24T04:58:22;2.90;;;2.70;;
44456;SDS011;30159;49.316;8.558;2023-07-24T05:00:49;3.00;;;2.80;;
44456;SDS011;30159;49.316;8.558;2023-07-24T05:03:15;4.70;;;3.67;;
44456;SDS011;30159;49.316;8.558;2023-07-24T05:05:43;4.17;;;3.87;;
44456;SDS011;30159;49.316;8.558;2023-07-24T05:08:09;3.83;;;3.53;;
44456;SDS011;30159;49.316;8.558;2023-07-24T05:10:37;5.03;;;3.13;;
44456;SDS011;30159;49.316;8.558;2023-07-24T05:13:04;3.13;;;2.93;;
44456;SDS011;30159;49.316;8.558;2023-07-24T05:15:30;3.17;;;2.87;;
44456;SDS011;30159;49.316;8.558;2023-07-24T05:17:57;4.50;;;3.43;;
44456;SDS011;30159;49.316;8.558;2023-07-24T05:20:23;4.90;;;4.43;;
44456;SDS011;30159;49.316;8.558;2023-07-24T05:22:50;3.67;;;3.37;;
44456;SDS011;30159;49.316;8.558;2023-07-24T05:25:17;3.53;;;3.23;;
44456;SDS011;30159;49.316;8.558;2023-07-24T05:27:44;3.67;;;3.40;;
44456;SDS011;30159;49.316;8.558;2023-07-24T05:30:11;4.70;;;3.83;;
44456;SDS011;30159;49.316;8.558;2023-07-24T05:32:38;3.60;;;3.30;;
44456;SDS011;30159;49.316;8.558;2023-07-24T05:35:04;4.83;;;4.27;;
44456;SDS011;30159;49.316;8.558;2023-07-24T05:37:31;4.30;;;3.93;;
44456;SDS011;30159;49.316;8.558;2023-07-24T05:39:58;6.23;;;3.77;;
44456;SDS011;30159;49.316;8.558;2023-07-24T05:42:24;7.80;;;3.23;;
44456;SDS011;30159;49.316;8.558;2023-07-24T05:44:52;4.20;;;3.80;;
44456;SDS011;30159;49.316;8.558;2023-07-24T05:47:19;4.37;;;3.40;;
44456;SDS011;30159;49.316;8.558;2023-07-24T05:49:45;5.77;;;3.87;;
44456;SDS011;30159;49.316;8.558;2023-07-24T05:52:12;5.87;;;3.60;;
44456;SDS011;30159;49.316;8.558;2023-07-24T05:54:39;4.30;;;3.90;;
44456;SDS011;30159;49.316;8.558;2023-07-24T05:57:05;8.60;;;4.50;;
44456;SDS011;30159;49.316;8.558;2023-07-24T05:59:32;4.27;;;3.97;;
44456;SDS011;30159;49.316;8.558;2023-07-24T06:02:00;3.30;;;3.00;;
44456;SDS011;30159;49.316;8.558;2023-07-24T06:04:28;4.93;;;3.40;;
44456;SDS011;30159;49.316;8.558;2023-07-24T06:06:54;4.27;;;3.87;;
44456;SDS011;30159;49.316;8.558;2023-07-24T06:09:21;4.40;;;4.00;;
44456;SDS011;30159;49.316;8.558;2023-07-24T06:11:48;5.63;;;3.90;;
44456;SDS011;30159;49.316;8.558;2023-07-24T06:14:14;4.03;;;3.73;;
44456;SDS011;30159;49.316;8.558;2023-07-24T06:16:41;4.30;;;3.90;;
44456;SDS011;30159;49.316;8.558;2023-07-24T06:19:09;3.40;;;2.97;;
44456;SDS011;30159;49.316;8.558;2023-07-24T06:21:35;3.93;;;3.60;;
44456;SDS011;30159;49.316;8.558;2023-07-24T06:24:02;5.03;;;3.53;;
44456;SDS011;30159;49.316;8.558;2023-07-24T06:26:29;4.90;;;4.50;;
44456;SDS011;30159;49.316;8.558;2023-07-24T06:28:56;3.90;;;3.50;;
44456;SDS011;30159;49.316;8.558;2023-07-24T06:31:22;4.40;;;4.10;;
44456;SDS011;30159;49.316;8.558;2023-07-24T06:33:49;4.50;;;3.40;;
44456;SDS011;30159;49.316;8.558;2023-07-24T06:36:17;5.00;;;4.20;;
44456;SDS011;30159;49.316;8.558;2023-07-24T06:38:43;4.43;;;4.10;;
44456;SDS011;30159;49.316;8.558;2023-07-24T06:41:12;5.53;;;4.07;;
44456;SDS011;30159;49.316;8.558;2023-07-24T06:43:40;5.43;;;4.10;;
44456;SDS011;30159;49.316;8.558;2023-07-24T06:46:07;4.30;;;4.00;;
44456;SDS011;30159;49.316;8.558;2023-07-24T06:48:34;3.73;;;3.47;;
44456;SDS011;30159;49.316;8.558;2023-07-24T06:51:00;3.53;;;3.23;;
44456;SDS011;30159;49.316;8.558;2023-07-24T06:53:28;5.63;;;3.60;;
44456;SDS011;30159;49.316;8.558;2023-07-24T06:55:55;4.87;;;4.43;;
44456;SDS011;30159;49.316;8.558;2023-07-24T06:58:21;5.50;;;4.37;;
44456;SDS011;30159;49.316;8.558;2023-07-24T07:00:48;4.10;;;3.53;;
44456;SDS011;30159;49.316;8.558;2023-07-24T07:03:14;5.43;;;4.93;;
44456;SDS011;30159;49.316;8.558;2023-07-24T07:05:41;4.70;;;4.40;;
44456;SDS011;30159;49.316;8.558;2023-07-24T07:08:07;4.60;;;4.20;;
44456;SDS011;30159;49.316;8.558;2023-07-24T07:10:35;4.40;;;4.00;;
44456;SDS011;30159;49.316;8.558;2023-07-24T07:13:02;5.10;;;4.70;;
44456;SDS011;30159;49.316;8.558;2023-07-24T07:15:29;5.80;;;4.30;;
44456;SDS011;30159;49.316;8.558;2023-07-24T07:17:55;5.40;;;4.90;;
44456;SDS011;30159;49.316;8.558;2023-07-24T07:20:22;5.53;;;5.00;;
44456;SDS011;30159;49.316;8.558;2023-07-24T07:22:49;5.03;;;4.63;;
44456;SDS011;30159;49.316;8.558;2023-07-24T07:25:15;5.57;;;5.07;;
44456;SDS011;30159;49.316;8.558;2023-07-24T07:27:43;5.47;;;4.97;;
44456;SDS011;30159;49.316;8.558;2023-07-24T07:30:10;5.60;;;5.20;;
44456;SDS011;30159;49.316;8.558;2023-07-24T07:32:38;5.53;;;4.70;;
44456;SDS011;30159;49.316;8.558;2023-07-24T07:35:05;5.73;;;5.17;;
44456;SDS011;30159;49.316;8.558;2023-07-24T07:37:32;6.23;;;4.37;;
44456;SDS011;30159;49.316;8.558;2023-07-24T07:39:58;5.67;;;5.00;;
44456;SDS011;30159;49.316;8.558;2023-07-24T07:42:25;5.70;;;5.20;;
44456;SDS011;30159;49.316;8.558;2023-07-24T07:44:53;10.50;;;5.10;;
44456;SDS011;30159;49.316;8.558;2023-07-24T07:47:19;5.93;;;4.90;;
44456;SDS011;30159;49.316;8.558;2023-07-24T07:49:46;5.33;;;4.83;;
44456;SDS011;30159;49.316;8.558;2023-07-24T07:52:13;6.10;;;4.50;;
44456;SDS011;30159;49.316;8.558;2023-07-24T07:54:45;5.83;;;4.93;;
44456;SDS011;30159;49.316;8.558;2023-07-24T07:57:12;7.57;;;4.97;;
44456;SDS011;30159;49.316;8.558;2023-07-24T07:59:38;4.87;;;4.47;;
44456;SDS011;30159;49.316;8.558;2023-07-24T08:02:06;5.53;;;4.17;;
44456;SDS011;30159;49.316;8.558;2023-07-24T08:04:34;5.17;;;4.67;;
44456;SDS011;30159;49.316;8.558;2023-07-24T08:07:00;6.30;;;4.87;;
44456;SDS011;30159;49.316;8.558;2023-07-24T08:09:27;5.30;;;4.90;;
44456;SDS011;30159;49.316;8.558;2023-07-24T08:11:54;4.33;;;4.03;;
44456;SDS011;30159;49.316;8.558;2023-07-24T08:14:21;4.67;;;4.30;;
44456;SDS011;30159;49.316;8.558;2023-07-24T08:16:47;5.83;;;5.00;;
44456;SDS011;30159;49.316;8.558;2023-07-24T08:19:15;5.87;;;4.23;;
44456;SDS011;30159;49.316;8.558;2023-07-24T08:21:42;5.03;;;4.60;;
44456;SDS011;30159;49.316;8.558;2023-07-24T08:24:09;4.80;;;4.40;;
44456;SDS011;30159;49.316;8.558;2023-07-24T08:26:36;5.20;;;4.53;;
44456;SDS011;30159;49.316;8.558;2023-07-24T08:29:03;5.07;;;4.63;;
44456;SDS011;30159;49.316;8.558;2023-07-24T08:31:30;5.30;;;4.80;;
44456;SDS011;30159;49.316;8.558;2023-07-24T08:33:57;5.60;;;4.67;;
44456;SDS011;30159;49.316;8.558;2023-07-24T08:36:25;5.00;;;4.60;;
44456;SDS011;30159;49.316;8.558;2023-07-24T08:38:51;4.60;;;4.20;;
44456;SDS011;30159;49.316;8.558;2023-07-24T08:41:18;5.53;;;4.70;;
44456;SDS011;30159;49.316;8.558;2023-07-24T08:43:44;7.23;;;4.47;;
44456;SDS011;30159;49.316;8.558;2023-07-24T08:46:11;4.70;;;4.30;;
44456;SDS011;30159;49.316;8.558;2023-07-24T08:48:40;5.17;;;4.73;;
44456;SDS011;30159;49.316;8.558;2023-07-24T08:51:09;5.00;;;4.60;;
44456;SDS011;30159;49.316;8.558;2023-07-24T08:53:39;6.10;;;5.60;;
44456;SDS011;30159;49.316;8.558;2023-07-24T08:56:07;4.90;;;4.50;;
44456;SDS011;30159;49.316;8.558;2023-07-24T08:58:35;4.87;;;4.40;;
44456;SDS011;30159;49.316;8.558;2023-07-24T09:01:04;4.47;;;4.17;;
44456;SDS011;30159;49.316;8.558;2023-07-24T09:03:31;5.17;;;4.63;;
44456;SDS011;30159;49.316;8.558;2023-07-24T09:05:58;5.20;;;4.70;;
44456;SDS011;30159;49.316;8.558;2023-07-24T09:08:30;5.00;;;4.60;;
44456;SDS011;30159;49.316;8.558;2023-07-24T09:10:58;4.47;;;4.17;;
44456;SDS011;30159;49.316;8.558;2023-07-24T09:13:26;5.73;;;5.03;;
44456;SDS011;30159;49.316;8.558;2023-07-24T09:15:53;5.07;;;4.67;;
44456;SDS011;30159;49.316;8.558;2023-07-24T09:18:20;5.90;;;5.40;;
44456;SDS011;30159;49.316;8.558;2023-07-24T09:20:47;5.00;;;4.50;;
44456;SDS011;30159;49.316;8.558;2023-07-24T09:23:15;5.43;;;4.80;;
44456;SDS011;30159;49.316;8.558;2023-07-24T09:25:42;5.13;;;4.07;;
44456;SDS011;30159;49.316;8.558;2023-07-24T09:28:11;4.20;;;3.90;;
44456;SDS011;30159;49.316;8.558;2023-07-24T09:30:39;4.67;;;4.20;;
44456;SDS011;30159;49.316;8.558;2023-07-24T09:33:07;5.20;;;4.80;;
44456;SDS011;30159;49.316;8.558;2023-07-24T09:35:34;5.33;;;4.37;;
44456;SDS011;30159;49.316;8.558;2023-07-24T09:38:04;4.40;;;4.10;;
44456;SDS011;30159;49.316;8.558;2023-07-24T09:40:39;4.77;;;4.47;;
44456;SDS011;30159;49.316;8.558;2023-07-24T09:43:17;22.03;;;5.20;;
44456;SDS011;30159;49.316;8.558;2023-07-24T09:45:45;5.80;;;3.97;;
44456;SDS011;30159;49.316;8.558;2023-07-24T09:48:13;4.70;;;4.33;;
44456;SDS011;30159;49.316;8.558;2023-07-24T09:50:41;3.60;;;3.37;;
44456;SDS011;30159;49.316;8.558;2023-07-24T09:53:10;4.80;;;4.30;;
44456;SDS011;30159;49.316;8.558;2023-07-24T09:55:42;5.07;;;4.17;;
44456;SDS011;30159;49.316;8.558;2023-07-24T09:58:15;5.40;;;5.00;;
44456;SDS011;30159;49.316;8.558;2023-07-24T10:00:44;3.87;;;3.60;;
44456;SDS011;30159;49.316;8.558;2023-07-24T10:03:12;4.60;;;3.90;;
44456;SDS011;30159;49.316;8.558;2023-07-24T10:05:40;4.47;;;4.17;;
44456;SDS011;30159;49.316;8.558;2023-07-24T10:08:07;11.53;;;3.50;;
44456;SDS011;30159;49.316;8.558;2023-07-24T10:10:35;5.03;;;4.57;;
44456;SDS011;30159;49.316;8.558;2023-07-24T10:13:02;4.27;;;3.87;;
44456;SDS011;30159;49.316;8.558;2023-07-24T10:15:29;4.10;;;3.90;;
44456;SDS011;30159;49.316;8.558;2023-07-24T10:18:02;4.47;;;4.17;;
44456;SDS011;30159;49.316;8.558;2023-07-24T10:20:33;4.13;;;3.73;;
44456;SDS011;30159;49.316;8.558;2023-07-24T10:23:01;3.63;;;3.33;;
44456;SDS011;30159;49.316;8.558;2023-07-24T10:25:29;4.23;;;3.83;;
44456;SDS011;30159;49.316;8.558;2023-07-24T10:28:00;3.93;;;3.70;;
44456;SDS011;30159;49.316;8.558;2023-07-24T10:30:30;3.87;;;3.67;;
44456;SDS011;30159;49.316;8.558;2023-07-24T10:33:04;3.70;;;3.40;;
44456;SDS011;30159;49.316;8.558;2023-07-24T10:35:41;4.10;;;3.30;;
44456;SDS011;30159;49.316;8.558;2023-07-24T10:38:09;5.17;;;3.67;;
44456;SDS011;30159;49.316;8.558;2023-07-24T10:40:37;4.40;;;4.10;;
44456;SDS011;30159;49.316;8.558;2023-07-24T10:43:07;4.13;;;3.87;;
44456;SDS011;30159;49.316;8.558;2023-07-24T10:45:38;9.90;;;4.30;;
44456;SDS011;30159;49.316;8.558;2023-07-24T10:48:06;4.00;;;3.70;;
44456;SDS011;30159;49.316;8.558;2023-07-24T10:50:37;4.07;;;3.77;;
44456;SDS011;30159;49.316;8.558;2023-07-24T10:53:04;4.30;;;4.03;;
44456;SDS011;30159;49.316;8.558;2023-07-24T10:55:31;4.77;;;4.50;;
44456;SDS011;30159;49.316;8.558;2023-07-24T10:57:57;4.33;;;4.00;;
44456;SDS011;30159;49.316;8.558;2023-07-24T11:00:25;5.50;;;5.00;;
44456;SDS011;30159;49.316;8.558;2023-07-24T11:02:52;4.53;;;4.13;;
44456;SDS011;30159;49.316;8.558;2023-07-24T11:05:20;5.17;;;3.83;;
44456;SDS011;30159;49.316;8.558;2023-07-24T11:07:47;4.57;;;4.17;;
44456;SDS011;30159;49.316;8.558;2023-07-24T11:10:16;4.77;;;4.47;;
44456;SDS011;30159;49.316;8.558;2023-07-24T11:12:43;5.23;;;4.50;;
44456;SDS011;30159;49.316;8.558;2023-07-24T11:15:10;4.30;;;4.00;;
44456;SDS011;30159;49.316;8.558;2023-07-24T11:17:38;4.77;;;4.37;;
44456;SDS011;30159;49.316;8.558;2023-07-24T11:20:07;4.90;;;4.50;;
44456;SDS011;30159;49.316;8.558;2023-07-24T11:22:37;4.73;;;3.83;;
44456;SDS011;30159;49.316;8.558;2023-07-24T11:25:04;5.70;;;5.30;;
44456;SDS011;30159;49.316;8.558;2023-07-24T11:27:32;5.03;;;4.63;;
44456;SDS011;30159;49.316;8.558;2023-07-24T11:29:59;3.50;;;3.20;;
44456;SDS011;30159;49.316;8.558;2023-07-24T11:32:26;5.43;;;3.83;;
44456;SDS011;30159;49.316;8.558;2023-07-24T11:34:52;4.10;;;3.70;;
44456;SDS011;30159;49.316;8.558;2023-07-24T11:37:19;3.83;;;3.63;;
44456;SDS011;30159;49.316;8.558;2023-07-24T11:39:57;3.03;;;2.80;;
44456;SDS011;30159;49.316;8.558;2023-07-24T11:42:29;4.40;;;3.90;;
44456;SDS011;30159;49.316;8.558;2023-07-24T11:44:56;4.57;;;4.17;;
44456;SDS011;30159;49.316;8.558;2023-07-24T11:47:27;5.30;;;3.83;;
44456;SDS011;30159;49.316;8.558;2023-07-24T11:49:58;4.50;;;3.17;;
44456;SDS011;30159;49.316;8.558;2023-07-24T11:52:25;3.80;;;3.53;;
44456;SDS011;30159;49.316;8.558;2023-07-24T11:54:58;3.40;;;3.20;;
44456;SDS011;30159;49.316;8.558;2023-07-24T11:57:28;3.97;;;3.67;;
44456;SDS011;30159;49.316;8.558;2023-07-24T11:59:55;4.50;;;3.10;;
44456;SDS011;30159;49.316;8.558;2023-07-24T12:02:23;4.27;;;3.83;;
44456;SDS011;30159;49.316;8.558;2023-07-24T12:04:55;4.43;;;4.07;;
44456;SDS011;30159;49.316;8.558;2023-07-24T12:07:28;3.97;;;3.63;;
44456;SDS011;30159;49.316;8.558;2023-07-24T12:09:56;4.10;;;3.80;;
44456;SDS011;30159;49.316;8.558;2023-07-24T12:12:24;4.23;;;3.93;;
44456;SDS011;30159;49.316;8.558;2023-07-24T12:14:50;3.63;;;3.33;;
44456;SDS011;30159;49.316;8.558;2023-07-24T12:17:18;5.10;;;3.13;;
44456;SDS011;30159;49.316;8.558;2023-07-24T12:19:45;5.30;;;3.93;;
44456;SDS011;30159;49.316;8.558;2023-07-24T12:22:12;4.77;;;3.53;;
44456;SDS011;30159;49.316;8.558;2023-07-24T12:24:38;4.10;;;3.80;;
44456;SDS011;30159;49.316;8.558;2023-07-24T12:27:05;3.80;;;3.60;;
44456;SDS011;30159;49.316;8.558;2023-07-24T12:29:33;4.57;;;4.17;;
44456;SDS011;30159;49.316;8.558;2023-07-24T12:32:00;3.80;;;3.60;;
44456;SDS011;30159;49.316;8.558;2023-07-24T12:34:26;4.40;;;4.10;;
44456;SDS011;30159;49.316;8.558;2023-07-24T12:36:53;3.50;;;3.30;;
44456;SDS011;30159;49.316;8.558;2023-07-24T12:39:20;4.33;;;3.93;;
44456;SDS011;30159;49.316;8.558;2023-07-24T12:41:46;3.73;;;3.53;;
44456;SDS011;30159;49.316;8.558;2023-07-24T12:44:13;3.87;;;3.60;;
44456;SDS011;30159;49.316;8.558;2023-07-24T12:46:41;4.10;;;3.70;;
44456;SDS011;30159;49.316;8.558;2023-07-24T12:49:07;3.57;;;3.27;;
44456;SDS011;30159;49.316;8.558;2023-07-24T12:51:34;4.70;;;4.30;;
44456;SDS011;30159;49.316;8.558;2023-07-24T12:54:00;3.53;;;3.23;;
44456;SDS011;30159;49.316;8.558;2023-07-24T12:56:27;3.17;;;2.97;;
44456;SDS011;30159;49.316;8.558;2023-07-24T12:58:54;5.90;;;3.63;;
44456;SDS011;30159;49.316;8.558;2023-07-24T13:01:20;3.63;;;3.33;;
44456;SDS011;30159;49.316;8.558;2023-07-24T13:03:48;4.17;;;3.47;;
44456;SDS011;30159;49.316;8.558;2023-07-24T13:06:15;4.10;;;3.40;;
44456;SDS011;30159;49.316;8.558;2023-07-24T13:08:41;3.47;;;3.27;;
44456;SDS011;30159;49.316;8.558;2023-07-24T13:11:08;3.50;;;3.23;;
44456;SDS011;30159;49.316;8.558;2023-07-24T13:13:34;18.60;;;4.30;;
44456;SDS011;30159;49.316;8.558;2023-07-24T13:16:02;4.30;;;3.90;;
44456;SDS011;30159;49.316;8.558;2023-07-24T13:18:29;3.47;;;3.20;;
44456;SDS011;30159;49.316;8.558;2023-07-24T13:20:57;4.73;;;4.33;;
44456;SDS011;30159;49.316;8.558;2023-07-24T13:23:23;3.87;;;3.57;;
44456;SDS011;30159;49.316;8.558;2023-07-24T13:25:51;4.40;;;4.10;;
44456;SDS011;30159;49.316;8.558;2023-07-24T13:28:18;3.50;;;3.20;;
44456;SDS011;30159;49.316;8.558;2023-07-24T13:30:45;3.90;;;3.57;;
44456;SDS011;30159;49.316;8.558;2023-07-24T13:33:12;4.23;;;3.30;;
44456;SDS011;30159;49.316;8.558;2023-07-24T13:35:39;4.40;;;4.00;;
44456;SDS011;30159;49.316;8.558;2023-07-24T13:38:07;4.43;;;4.13;;
44456;SDS011;30159;49.316;8.558;2023-07-24T13:40:34;4.20;;;3.90;;
44456;SDS011;30159;49.316;8.558;2023-07-24T13:43:00;5.17;;;3.70;;
44456;SDS011;30159;49.316;8.558;2023-07-24T13:45:27;2.90;;;2.70;;
44456;SDS011;30159;49.316;8.558;2023-07-24T13:47:54;4.57;;;4.17;;
44456;SDS011;30159;49.316;8.558;2023-07-24T13:50:21;3.77;;;3.57;;
44456;SDS011;30159;49.316;8.558;2023-07-24T13:52:47;3.93;;;3.63;;
44456;SDS011;30159;49.316;8.558;2023-07-24T13:55:15;3.83;;;3.43;;
44456;SDS011;30159;49.316;8.558;2023-07-24T13:57:42;4.10;;;3.70;;
44456;SDS011;30159;49.316;8.558;2023-07-24T14:00:09;3.80;;;3.40;;
44456;SDS011;30159;49.316;8.558;2023-07-24T14:02:36;4.17;;;3.60;;
44456;SDS011;30159;49.316;8.558;2023-07-24T14:05:02;3.60;;;3.30;;
44456;SDS011;30159;49.316;8.558;2023-07-24T14:07:29;4.13;;;3.83;;
44456;SDS011;30159;49.316;8.558;2023-07-24T14:09:56;4.43;;;3.63;;
44456;SDS011;30159;49.316;8.558;2023-07-24T14:12:24;4.00;;;3.00;;
44456;SDS011;30159;49.316;8.558;2023-07-24T14:14:50;3.60;;;3.40;;
44456;SDS011;30159;49.316;8.558;2023-07-24T14:17:17;3.70;;;3.40;;
44456;SDS011;30159;49.316;8.558;2023-07-24T14:19:44;3.90;;;3.60;;
44456;SDS011;30159;49.316;8.558;2023-07-24T14:22:10;4.20;;;3.37;;
44456;SDS011;30159;49.316;8.558;2023-07-24T14:24:37;3.53;;;3.33;;
44456;SDS011;30159;49.316;8.558;2023-07-24T14:27:04;3.03;;;2.83;;
44456;SDS011;30159;49.316;8.558;2023-07-24T14:29:32;3.17;;;2.87;;
44456;SDS011;30159;49.316;8.558;2023-07-24T14:31:59;3.50;;;3.20;;
44456;SDS011;30159;49.316;8.558;2023-07-24T14:34:25;5.20;;;2.50;;
44456;SDS011;30159;49.316;8.558;2023-07-24T14:36:52;3.17;;;2.90;;
44456;SDS011;30159;49.316;8.558;2023-07-24T14:39:19;4.43;;;3.17;;
44456;SDS011;30159;49.316;8.558;2023-07-24T14:41:46;11.03;;;4.93;;
44456;SDS011;30159;49.316;8.558;2023-07-24T14:44:12;3.00;;;2.70;;
44456;SDS011;30159;49.316;8.558;2023-07-24T14:46:40;3.77;;;3.37;;
44456;SDS011;30159;49.316;8.558;2023-07-24T14:49:07;4.20;;;2.60;;